Time;durP1;ratioP1;P1;durP2;ratioP2;P2;SDS_P1;SDS_P2;PMS_P1;PMS_P2;Temp;Humidity;BMP_temperature;BMP_pressure;BME280_temperature;BME280_humidity;BME280_pressure;Samples;Min_cycle;Max_cycle;Signal;HPM_P1;HPM_P2
2023/04/18 00:00:12;;;;;;;27.95;25.05;;;14.50;95.40;;;;;;5052380;28;20056;-67
2023/04/18 00:02:38;;;;;;;29.27;26.15;;;14.60;95.50;;;;;;5052006;28;20076;-67
2023/04/18 00:05:07;;;;;;;26.50;23.67;;;14.50;95.40;;;;;;5052056;28;20526;-67
2023/04/18 00:07:34;;;;;;;32.38;25.55;;;14.40;95.50;;;;;;5052021;28;20067;-69
2023/04/18 00:10:01;;;;;;;25.40;22.65;;;14.50;95.50;;;;;;5052302;28;20021;-67
2023/04/18 00:12:26;;;;;;;28.02;25.05;;;14.40;95.40;;;;;;5052173;28;20478;-68
2023/04/18 00:14:52;;;;;;;26.15;23.42;;;14.30;95.50;;;;;;5052090;28;20033;-68
2023/04/18 00:17:19;;;;;;;28.95;24.83;;;14.40;95.50;;;;;;5051997;28;20107;-69
2023/04/18 00:19:45;;;;;;;30.27;26.98;;;14.30;95.50;;;;;;5051656;28;20497;-67
2023/04/18 00:22:11;;;;;;;29.70;26.58;;;14.30;95.40;;;;;;5051921;28;20025;-67
2023/04/18 00:24:38;;;;;;;27.90;24.92;;;14.30;95.40;;;;;;5052128;28;20029;-67
2023/04/18 00:27:04;;;;;;;27.73;23.98;;;14.30;95.40;;;;;;5051994;28;20029;-67
2023/04/18 00:29:30;;;;;;;26.70;23.88;;;14.30;95.40;;;;;;5051901;28;20021;-68
2023/04/18 00:31:56;;;;;;;27.20;24.30;;;14.30;95.30;;;;;;5051786;28;20028;-68
2023/04/18 00:34:22;;;;;;;28.30;25.30;;;14.20;95.40;;;;;;5051475;28;20029;-69
2023/04/18 00:36:47;;;;;;;28.30;25.00;;;14.30;95.30;;;;;;5052033;28;20029;-67
2023/04/18 00:39:13;;;;;;;29.20;24.77;;;14.20;95.20;;;;;;5051756;28;20044;-68
2023/04/18 00:41:39;;;;;;;27.13;23.52;;;14.20;95.00;;;;;;5051871;28;20121;-68
2023/04/18 00:44:05;;;;;;;25.80;23.13;;;14.10;95.20;;;;;;5051881;28;20025;-67
2023/04/18 00:46:30;;;;;;;25.30;22.63;;;14.10;95.20;;;;;;5051805;28;20478;-67
2023/04/18 00:48:56;;;;;;;28.08;24.17;;;14.10;95.20;;;;;;5055092;28;20466;-68
2023/04/18 00:51:22;;;;;;;25.63;22.92;;;14.20;95.00;;;;;;5055459;28;20112;-67
2023/04/18 00:53:48;;;;;;;26.98;23.35;;;14.00;95.10;;;;;;5055379;28;20123;-68
2023/04/18 00:56:13;;;;;;;30.90;23.35;;;14.00;95.00;;;;;;5037412;28;20024;-67
2023/04/18 00:58:39;;;;;;;28.02;24.25;;;14.00;95.00;;;;;;5055183;28;20389;-67
2023/04/18 01:01:05;;;;;;;24.80;22.08;;;14.00;95.00;;;;;;5055194;28;20027;-69
2023/04/18 01:03:31;;;;;;;25.25;22.58;;;13.90;95.10;;;;;;5055110;28;20393;-68
2023/04/18 01:05:57;;;;;;;24.35;21.73;;;13.90;95.20;;;;;;5054876;28;20025;-67
2023/04/18 01:08:24;;;;;;;25.73;22.73;;;13.90;95.20;;;;;;5055073;28;20021;-69
2023/04/18 01:10:49;;;;;;;26.02;23.23;;;13.90;95.00;;;;;;5055032;28;20025;-68
2023/04/18 01:13:17;;;;;;;25.48;22.38;;;13.90;95.00;;;;;;5054331;28;20088;-69
2023/04/18 01:15:45;;;;;;;27.67;21.73;;;13.80;95.10;;;;;;5046415;28;20104;-68
2023/04/18 01:18:12;;;;;;;25.63;22.73;;;13.80;95.10;;;;;;5033967;28;20045;-68
2023/04/18 01:20:49;;;;;;;23.95;21.33;;;13.70;95.20;;;;;;5032554;28;20022;-69
2023/04/18 01:23:16;;;;;;;25.88;22.58;;;13.80;95.10;;;;;;5034864;28;20018;-69
2023/04/18 01:25:42;;;;;;;27.23;20.60;;;13.80;95.10;;;;;;5034769;28;20391;-67
2023/04/18 01:28:08;;;;;;;25.95;21.17;;;13.70;95.10;;;;;;5034808;28;20017;-68
2023/04/18 01:30:34;;;;;;;23.67;21.25;;;13.70;95.10;;;;;;5034894;28;20525;-69
2023/04/18 01:33:04;;;;;;;24.67;22.08;;;13.80;95.00;;;;;;5034683;28;20488;-67
2023/04/18 01:35:30;;;;;;;27.52;21.85;;;13.80;94.70;;;;;;5034284;28;20033;-68
2023/04/18 01:37:56;;;;;;;23.17;20.73;;;13.70;94.80;;;;;;5034537;28;20053;-68
2023/04/18 01:40:22;;;;;;;24.90;20.70;;;13.70;94.90;;;;;;5016734;28;20479;-69
2023/04/18 01:42:47;;;;;;;24.20;21.58;;;13.70;95.20;;;;;;5034593;28;20022;-67
2023/04/18 01:45:14;;;;;;;25.33;21.92;;;13.70;94.90;;;;;;5034450;28;20655;-69
2023/04/18 01:47:40;;;;;;;24.27;19.88;;;13.60;95.00;;;;;;5034284;28;20029;-68
2023/04/18 01:50:06;;;;;;;23.52;20.98;;;13.50;95.10;;;;;;5034367;28;20079;-68
2023/04/18 01:52:32;;;;;;;24.20;20.08;;;13.50;95.10;;;;;;5034453;28;20022;-67
2023/04/18 01:54:57;;;;;;;22.90;20.48;;;13.50;95.00;;;;;;5034207;28;20025;-69
2023/04/18 01:57:23;;;;;;;22.95;19.88;;;13.50;95.10;;;;;;5034144;28;20549;-69
2023/04/18 01:59:49;;;;;;;26.15;21.27;;;13.50;95.10;;;;;;5034423;28;20083;-68
2023/04/18 02:02:15;;;;;;;22.95;20.48;;;13.40;95.00;;;;;;5033653;28;20052;-69
2023/04/18 02:04:40;;;;;;;22.38;20.08;;;13.40;95.00;;;;;;5034211;28;20083;-68
2023/04/18 02:07:06;;;;;;;23.92;20.05;;;13.40;95.20;;;;;;5033944;28;20017;-69
2023/04/18 02:09:31;;;;;;;26.40;20.30;;;13.50;95.00;;;;;;5034097;28;20029;-70
2023/04/18 02:11:58;;;;;;;24.80;21.58;;;13.40;95.00;;;;;;5033719;28;20033;-68
2023/04/18 02:14:29;;;;;;;25.77;21.20;;;13.40;95.00;;;;;;5034304;28;20036;-69
2023/04/18 02:16:55;;;;;;;24.50;19.90;;;13.50;95.10;;;;;;5033512;28;20080;-67
2023/04/18 02:19:21;;;;;;;25.13;20.75;;;13.40;95.00;;;;;;5033905;28;20037;-67
2023/04/18 02:21:47;;;;;;;26.80;22.30;;;13.40;94.90;;;;;;5033503;28;20486;-67
2023/04/18 02:24:12;;;;;;;26.05;21.55;;;13.40;94.80;;;;;;5034033;28;20029;-63
2023/04/18 02:26:38;;;;;;;21.35;19.05;;;13.40;94.90;;;;;;5033532;28;20108;-65
2023/04/18 02:29:03;;;;;;;25.40;21.10;;;13.30;95.00;;;;;;5033868;28;20022;-67
2023/04/18 02:31:30;;;;;;;23.25;20.35;;;13.30;94.80;;;;;;5033227;28;20018;-66
2023/04/18 02:33:56;;;;;;;26.55;20.75;;;13.30;94.90;;;;;;5015742;28;20125;-65
2023/04/18 02:36:22;;;;;;;22.35;19.85;;;13.30;94.80;;;;;;5033520;28;20112;-64
2023/04/18 02:38:47;;;;;;;25.35;20.63;;;13.30;94.80;;;;;;5033252;28;20034;-63
2023/04/18 02:41:16;;;;;;;23.77;20.50;;;13.40;94.70;;;;;;5033268;28;20025;-65
2023/04/18 02:43:41;;;;;;;23.23;20.02;;;13.30;94.80;;;;;;5033387;28;20022;-67
2023/04/18 02:46:07;;;;;;;23.20;20.58;;;13.40;94.80;;;;;;5033343;28;20419;-68
2023/04/18 02:48:33;;;;;;;23.20;20.67;;;13.30;94.80;;;;;;5033478;28;20033;-65
2023/04/18 02:51:03;;;;;;;21.95;19.60;;;13.40;94.60;;;;;;5033026;28;20029;-68
2023/04/18 02:53:28;;;;;;;21.48;18.98;;;13.40;94.40;;;;;;5033150;28;20021;-67
2023/04/18 02:55:54;;;;;;;26.52;19.63;;;13.30;94.60;;;;;;5033325;28;20390;-68
2023/04/18 02:58:19;;;;;;;20.55;18.40;;;13.20;94.50;;;;;;5032795;28;20041;-63
2023/04/18 03:00:45;;;;;;;20.63;17.85;;;13.20;94.50;;;;;;5033087;28;20049;-64
2023/04/18 03:03:11;;;;;;;21.13;18.95;;;13.20;94.50;;;;;;5032919;28;20393;-68
2023/04/18 03:05:38;;;;;;;19.02;17.00;;;13.30;94.30;;;;;;5015330;28;20112;-63
2023/04/18 03:08:04;;;;;;;24.33;19.35;;;13.20;94.40;;;;;;5032818;28;20032;-63
2023/04/18 03:10:30;;;;;;;20.20;18.10;;;13.20;94.40;;;;;;5032620;28;20100;-63
2023/04/18 03:12:55;;;;;;;21.27;17.40;;;13.20;94.10;;;;;;5032555;28;20425;-64
2023/04/18 03:15:21;;;;;;;20.05;17.30;;;13.20;93.90;;;;;;5032875;28;20364;-65
2023/04/18 03:17:47;;;;;;;21.15;17.23;;;13.20;93.80;;;;;;5015199;28;20529;-64
2023/04/18 03:20:13;;;;;;;18.05;16.13;;;13.10;94.00;;;;;;5032787;28;20057;-65
2023/04/18 03:22:38;;;;;;;17.98;15.95;;;13.20;93.90;;;;;;5032546;28;20030;-63
2023/04/18 03:25:05;;;;;;;19.77;16.73;;;13.10;94.00;;;;;;5032777;28;20089;-64
2023/04/18 03:27:31;;;;;;;19.52;17.42;;;13.10;93.90;;;;;;5032476;28;20021;-67
2023/04/18 03:29:57;;;;;;;23.38;17.45;;;13.10;93.80;;;;;;5032595;28;20036;-65
2023/04/18 03:32:22;;;;;;;16.70;14.95;;;13.20;93.70;;;;;;5032670;28;20025;-68
2023/04/18 03:34:50;;;;;;;22.15;17.20;;;13.20;93.90;;;;;;5032555;28;20044;-62
2023/04/18 03:37:15;;;;;;;20.55;17.30;;;13.10;93.60;;;;;;5032199;28;20113;-62
2023/04/18 03:39:41;;;;;;;19.17;16.23;;;13.10;93.60;;;;;;5032530;28;20116;-62
2023/04/18 03:42:06;;;;;;;20.63;17.10;;;13.10;93.60;;;;;;5032247;28;20022;-63
2023/04/18 03:44:32;;;;;;;20.35;16.30;;;13.00;93.60;;;;;;5032574;28;20375;-63
2023/04/18 03:46:57;;;;;;;20.88;17.63;;;12.90;93.70;;;;;;5032561;28;20447;-67
2023/04/18 03:49:23;;;;;;;19.70;17.25;;;13.00;93.50;;;;;;5032453;28;20029;-68
2023/04/18 03:51:49;;;;;;;19.42;16.80;;;13.10;93.20;;;;;;5032212;28;20467;-67
2023/04/18 03:54:15;;;;;;;17.73;15.82;;;13.10;93.10;;;;;;5032605;28;20021;-67
2023/04/18 03:56:41;;;;;;;20.55;16.85;;;13.00;93.00;;;;;;5032198;28;20028;-68
2023/04/18 03:59:06;;;;;;;19.02;15.75;;;12.90;93.20;;;;;;5032233;28;20063;-63
2023/04/18 04:01:32;;;;;;;20.98;16.45;;;13.00;93.20;;;;;;5032383;28;20025;-63
2023/04/18 04:03:58;;;;;;;19.50;15.43;;;12.90;93.20;;;;;;5032080;28;20475;-63
2023/04/18 04:06:24;;;;;;;17.30;14.93;;;12.90;93.20;;;;;;5032327;28;20026;-63
2023/04/18 04:08:50;;;;;;;18.30;15.48;;;12.80;93.10;;;;;;5042561;28;20079;-63
2023/04/18 04:11:16;;;;;;;18.30;15.88;;;12.80;93.00;;;;;;5041624;28;20029;-67
2023/04/18 04:13:41;;;;;;;18.73;15.20;;;12.80;93.00;;;;;;5046390;28;20029;-62
2023/04/18 04:16:07;;;;;;;21.33;15.65;;;12.90;92.60;;;;;;5030827;28;20028;-67
2023/04/18 04:18:33;;;;;;;19.17;15.38;;;12.90;92.60;;;;;;5050726;28;20555;-64
2023/04/18 04:20:59;;;;;;;19.08;14.80;;;12.90;92.40;;;;;;5045603;28;20139;-63
2023/04/18 04:23:25;;;;;;;18.80;15.10;;;12.90;92.20;;;;;;5053473;28;20083;-63
2023/04/18 04:25:52;;;;;;;18.42;14.50;;;12.90;91.90;;;;;;5053012;28;20025;-62
2023/04/18 04:28:21;;;;;;;17.52;13.82;;;12.90;91.90;;;;;;5055763;28;20040;-62
2023/04/18 04:30:51;;;;;;;16.17;13.75;;;12.90;92.00;;;;;;5046303;28;20408;-64
2023/04/18 04:33:18;;;;;;;16.08;13.30;;;12.80;92.00;;;;;;5043741;28;20032;-64
2023/04/18 04:35:45;;;;;;;14.27;12.57;;;12.80;91.90;;;;;;5051895;28;20037;-65
2023/04/18 04:38:14;;;;;;;14.82;13.18;;;12.80;92.00;;;;;;5044964;28;20044;-66
2023/04/18 04:40:39;;;;;;;16.48;13.40;;;12.80;91.80;;;;;;5045604;28;20028;-67
2023/04/18 04:43:05;;;;;;;15.52;13.10;;;12.80;91.60;;;;;;5037333;28;20024;-65
2023/04/18 04:45:31;;;;;;;15.40;13.15;;;12.80;91.60;;;;;;5048317;28;20127;-65
2023/04/18 04:47:58;;;;;;;13.90;12.40;;;12.70;91.60;;;;;;5052874;28;20074;-66
2023/04/18 04:50:24;;;;;;;15.48;12.32;;;12.80;91.70;;;;;;5054649;28;20104;-66
2023/04/18 04:52:50;;;;;;;15.50;12.45;;;12.70;91.70;;;;;;5050003;28;20417;-65
2023/04/18 04:55:16;;;;;;;15.90;12.85;;;12.80;91.50;;;;;;5054687;28;20104;-66
2023/04/18 04:57:43;;;;;;;15.07;13.40;;;12.70;91.40;;;;;;5050542;28;20474;-66
2023/04/18 05:00:10;;;;;;;17.30;12.60;;;12.70;91.40;;;;;;5044384;28;20029;-66
2023/04/18 05:02:35;;;;;;;14.93;12.15;;;12.70;91.40;;;;;;5043093;28;20033;-65
2023/04/18 05:05:01;;;;;;;13.32;11.93;;;12.70;91.40;;;;;;5050863;28;20024;-65
2023/04/18 05:07:27;;;;;;;16.95;11.55;;;12.70;91.40;;;;;;5043242;28;20389;-67
2023/04/18 05:09:52;;;;;;;13.63;11.88;;;12.70;91.40;;;;;;5050707;28;20052;-66
2023/04/18 05:12:18;;;;;;;14.38;11.52;;;12.70;91.30;;;;;;5062919;23;20044;-66
2023/04/18 05:14:43;;;;;;;14.43;12.10;;;12.60;91.20;;;;;;5072695;28;20457;-66
2023/04/18 05:17:09;;;;;;;12.82;11.45;;;12.60;91.00;;;;;;5061222;28;20035;-66
2023/04/18 05:19:34;;;;;;;14.15;11.88;;;12.60;90.90;;;;;;5053342;28;20493;-66
2023/04/18 05:22:00;;;;;;;13.45;11.23;;;12.70;90.80;;;;;;5050067;28;20021;-66
2023/04/18 05:24:26;;;;;;;13.75;11.20;;;12.70;90.90;;;;;;5041959;28;20112;-66
2023/04/18 05:26:51;;;;;;;16.02;11.32;;;12.60;91.10;;;;;;5037415;28;20100;-66
2023/04/18 05:29:17;;;;;;;25.58;11.63;;;12.60;90.80;;;;;;5040378;28;20293;-66
2023/04/18 05:31:43;;;;;;;14.60;10.55;;;12.60;91.20;;;;;;5052432;28;20508;-66
2023/04/18 05:34:08;;;;;;;12.27;10.98;;;12.50;90.90;;;;;;5052623;28;20104;-66
2023/04/18 05:36:34;;;;;;;14.10;11.13;;;12.60;90.70;;;;;;5051613;28;20478;-66
2023/04/18 05:38:59;;;;;;;12.32;11.02;;;12.60;90.40;;;;;;5050327;28;20111;-66
2023/04/18 05:41:25;;;;;;;12.35;10.85;;;12.60;90.40;;;;;;5047742;28;20037;-67
2023/04/18 05:43:51;;;;;;;16.15;11.15;;;12.60;90.40;;;;;;5051428;28;20024;-66
2023/04/18 05:46:16;;;;;;;13.30;10.77;;;12.50;90.30;;;;;;5041805;28;20036;-67
2023/04/18 05:48:42;;;;;;;12.60;10.07;;;12.60;90.20;;;;;;5048611;28;20029;-67
2023/04/18 05:51:07;;;;;;;13.48;10.63;;;12.60;90.00;;;;;;5050784;28;20427;-67
2023/04/18 05:53:33;;;;;;;11.57;9.48;;;12.60;89.80;;;;;;5046413;28;20026;-66
2023/04/18 05:55:58;;;;;;;12.93;10.02;;;12.60;89.50;;;;;;5051710;28;20036;-66
2023/04/18 05:58:24;;;;;;;10.98;9.88;;;12.50;89.50;;;;;;5046725;28;20037;-67
2023/04/18 06:00:51;;;;;;;14.30;10.27;;;12.60;90.10;;;;;;5048502;28;20501;-67
2023/04/18 06:05:47;;;;;;;12.65;9.68;;;12.70;89.70;;;;;;5032141;28;20050;-66
2023/04/18 06:08:13;;;;;;;12.43;9.98;;;12.80;89.20;;;;;;5015664;28;20045;-67
2023/04/18 06:10:38;;;;;;;10.20;9.20;;;12.80;88.80;;;;;;5000963;28;20061;-68
2023/04/18 06:13:04;;;;;;;12.73;8.63;;;12.90;88.90;;;;;;4986785;28;20463;-68
2023/04/18 06:15:30;;;;;;;11.30;8.90;;;12.90;88.90;;;;;;5012000;28;20425;-67
2023/04/18 06:17:55;;;;;;;13.50;8.32;;;13.00;87.90;;;;;;5011686;28;20040;-67
2023/04/18 06:20:22;;;;;;;10.27;9.18;;;13.10;87.90;;;;;;5008556;28;20112;-68
2023/04/18 06:22:47;;;;;;;10.50;8.65;;;13.10;87.00;;;;;;5012490;28;20053;-68
2023/04/18 06:25:13;;;;;;;13.43;9.07;;;13.10;86.80;;;;;;5013211;28;20536;-68
2023/04/18 06:27:38;;;;;;;10.93;8.60;;;13.10;87.00;;;;;;5011640;28;20399;-67
2023/04/18 06:30:05;;;;;;;12.80;9.20;;;13.10;86.80;;;;;;5008026;28;20548;-68
2023/04/18 06:32:31;;;;;;;12.45;8.82;;;13.10;87.20;;;;;;5000932;28;20034;-68
2023/04/18 06:34:56;;;;;;;12.35;8.65;;;13.10;86.80;;;;;;5000268;28;20041;-67
2023/04/18 06:37:22;;;;;;;10.13;8.00;;;13.20;86.70;;;;;;5004987;28;20076;-68
2023/04/18 06:39:49;;;;;;;9.18;7.78;;;13.30;86.70;;;;;;5005933;28;20088;-67
2023/04/18 06:42:15;;;;;;;11.25;8.88;;;13.30;87.10;;;;;;5000327;28;20053;-67
2023/04/18 06:44:42;;;;;;;10.38;8.48;;;13.30;86.60;;;;;;5010896;28;20490;-68
2023/04/18 06:47:08;;;;;;;10.27;8.40;;;13.30;86.10;;;;;;4994088;28;20069;-68
2023/04/18 06:49:33;;;;;;;11.23;8.48;;;13.40;85.90;;;;;;5001588;28;20021;-68
2023/04/18 06:51:59;;;;;;;10.45;8.45;;;13.40;86.30;;;;;;4996492;28;20361;-67
2023/04/18 06:54:25;;;;;;;9.00;8.10;;;13.50;85.80;;;;;;4998576;28;20038;-67
2023/04/18 06:56:52;;;;;;;12.70;8.38;;;12.70;85.70;;;;;;4993128;28;20022;-68
2023/04/18 06:59:20;;;;;;;9.25;8.02;;;12.10;87.80;;;;;;5000239;28;20038;-68
2023/04/18 07:01:46;;;;;;;9.65;8.63;;;11.60;88.80;;;;;;4996587;28;20484;-68
2023/04/18 07:04:12;;;;;;;10.02;8.65;;;11.70;89.90;;;;;;4994639;28;20037;-68
2023/04/18 07:06:37;;;;;;;10.95;8.48;;;11.70;89.30;;;;;;5007318;28;20117;-68
2023/04/18 07:09:03;;;;;;;14.23;9.27;;;11.40;90.00;;;;;;5005175;28;20410;-68
2023/04/18 07:11:28;;;;;;;9.20;8.20;;;11.50;90.30;;;;;;4992322;28;20022;-68
2023/04/18 07:13:54;;;;;;;9.82;8.77;;;11.40;90.40;;;;;;5009128;28;20088;-68
2023/04/18 07:16:20;;;;;;;12.15;8.68;;;11.40;90.40;;;;;;5006555;28;20026;-68
2023/04/18 07:18:45;;;;;;;11.73;8.40;;;11.60;90.40;;;;;;5011249;28;20050;-68
2023/04/18 07:21:11;;;;;;;14.98;9.05;;;11.40;90.40;;;;;;5011901;28;20465;-68
2023/04/18 07:23:36;;;;;;;13.65;9.32;;;11.20;90.50;;;;;;5006799;28;20034;-68
2023/04/18 07:26:04;;;;;;;10.05;9.05;;;11.40;90.60;;;;;;5005963;28;20029;-68
2023/04/18 07:28:30;;;;;;;12.00;9.60;;;11.50;90.60;;;;;;5008252;28;20532;-68
2023/04/18 07:30:56;;;;;;;11.65;8.85;;;11.30;90.60;;;;;;5010848;28;20030;-68
2023/04/18 07:33:23;;;;;;;13.25;9.40;;;11.30;90.90;;;;;;5006553;28;20506;-68
2023/04/18 07:35:50;;;;;;;13.57;9.77;;;11.30;90.80;;;;;;5009778;28;20041;-69
2023/04/18 07:38:16;;;;;;;10.13;9.02;;;11.30;90.90;;;;;;5011470;28;20036;-68
2023/04/18 07:40:43;;;;;;;9.70;8.55;;;11.30;90.90;;;;;;5011773;28;20030;-68
2023/04/18 07:43:09;;;;;;;9.77;8.77;;;11.30;91.00;;;;;;5012571;28;20014;-68
2023/04/18 07:45:37;;;;;;;10.38;8.80;;;11.40;90.90;;;;;;5012533;28;20026;-68
2023/04/18 07:48:03;;;;;;;14.52;9.00;;;11.40;90.90;;;;;;5012499;28;20026;-68
2023/04/18 07:50:29;;;;;;;10.90;9.80;;;11.40;90.90;;;;;;5009044;28;20049;-68
2023/04/18 07:52:54;;;;;;;10.23;8.85;;;11.50;90.90;;;;;;5006740;28;20034;-69
2023/04/18 07:55:20;;;;;;;13.13;9.18;;;11.70;90.80;;;;;;5009504;28;20025;-67
2023/04/18 07:57:49;;;;;;;16.83;10.07;;;11.60;90.70;;;;;;5014742;28;20474;-69
2023/04/18 08:00:18;;;;;;;11.05;9.48;;;11.60;90.80;;;;;;5016912;28;20101;-69
2023/04/18 08:02:44;;;;;;;14.77;11.30;;;11.50;90.90;;;;;;5015927;28;20486;-69
2023/04/18 08:05:09;;;;;;;11.75;9.50;;;11.70;90.60;;;;;;5003797;28;20034;-69
2023/04/18 08:07:35;;;;;;;14.65;10.35;;;11.40;91.00;;;;;;4999972;28;20026;-69
2023/04/18 08:10:02;;;;;;;11.35;9.88;;;11.40;91.20;;;;;;5014927;28;20066;-69
2023/04/18 08:12:27;;;;;;;10.73;9.63;;;11.60;91.10;;;;;;5009562;28;20026;-69
2023/04/18 08:14:53;;;;;;;13.98;10.30;;;11.60;90.90;;;;;;5016616;28;20535;-69
2023/04/18 08:17:19;;;;;;;15.18;10.57;;;11.70;90.90;;;;;;5015975;28;20391;-69
2023/04/18 08:19:45;;;;;;;12.18;10.23;;;11.90;90.90;;;;;;5015784;28;20052;-69
2023/04/18 08:22:10;;;;;;;11.05;8.77;;;11.80;90.70;;;;;;5012411;28;20030;-69
2023/04/18 08:24:37;;;;;;;13.10;10.05;;;12.10;91.10;;;;;;4996571;28;20441;-67
2023/04/18 08:27:03;;;;;;;12.60;10.27;;;12.10;90.40;;;;;;4996648;28;20027;-69
2023/04/18 08:29:29;;;;;;;12.13;10.30;;;12.00;90.60;;;;;;5013313;28;20109;-69
2023/04/18 08:31:54;;;;;;;12.77;10.32;;;12.00;90.70;;;;;;5015708;28;20464;-69
2023/04/18 08:34:20;;;;;;;11.55;10.32;;;12.10;90.80;;;;;;5016019;28;20037;-69
2023/04/18 08:36:45;;;;;;;12.32;10.93;;;12.00;90.60;;;;;;5010484;28;20041;-69
2023/04/18 08:39:11;;;;;;;13.50;10.68;;;12.10;90.90;;;;;;5015890;28;20109;-69
2023/04/18 08:41:38;;;;;;;15.35;11.75;;;12.00;91.00;;;;;;5031046;28;20033;-69
2023/04/18 08:44:05;;;;;;;16.27;11.23;;;12.10;91.00;;;;;;5023469;28;20030;-69
2023/04/18 08:46:37;;;;;;;15.05;11.50;;;11.90;91.00;;;;;;5015445;28;20030;-68
2023/04/18 08:49:05;;;;;;;17.23;11.48;;;11.90;91.00;;;;;;5008982;28;20042;-69
2023/04/18 08:51:38;;;;;;;17.98;11.38;;;11.80;91.10;;;;;;5015596;28;20105;-69
2023/04/18 08:54:05;;;;;;;16.70;12.05;;;11.80;91.30;;;;;;5015347;28;20022;-69
2023/04/18 08:56:31;;;;;;;15.05;11.90;;;11.80;91.40;;;;;;5004711;28;20114;-69
2023/04/18 08:58:59;;;;;;;16.92;12.43;;;11.70;91.50;;;;;;5007247;28;20096;-69
2023/04/18 09:01:56;;;;;;;14.85;12.65;;;11.80;91.60;;;;;;5015410;28;20525;-69
2023/04/18 09:04:44;;;;;;;14.80;12.65;;;12.10;91.40;;;;;;5008916;28;20037;-69
2023/04/18 09:07:11;;;;;;;18.63;12.45;;;12.10;91.10;;;;;;5013996;28;20030;-69
2023/04/18 09:09:51;;;;;;;15.20;12.95;;;12.20;91.10;;;;;;5014241;28;20494;-69
2023/04/18 09:12:21;;;;;;;14.52;12.05;;;12.10;91.00;;;;;;5015110;28;20053;-69
2023/04/18 09:14:49;;;;;;;17.65;12.00;;;12.10;90.90;;;;;;5013320;28;20030;-69
2023/04/18 09:17:32;;;;;;;19.10;13.55;;;11.80;91.20;;;;;;5013029;28;20038;-69
2023/04/18 09:19:58;;;;;;;13.40;12.00;;;11.90;91.50;;;;;;5013014;28;20033;-68
2023/04/18 09:22:25;;;;;;;24.50;13.23;;;11.80;91.60;;;;;;5014739;28;20068;-69
2023/04/18 09:24:56;;;;;;;14.35;12.68;;;12.00;91.60;;;;;;5013514;28;20077;-69
2023/04/18 09:27:22;;;;;;;16.33;13.00;;;12.00;91.50;;;;;;5013856;28;20455;-69
2023/04/18 09:29:50;;;;;;;14.10;12.05;;;12.10;91.60;;;;;;5013071;28;20022;-69
2023/04/18 09:32:28;;;;;;;16.25;12.63;;;12.10;91.40;;;;;;5013969;28;20040;-69
2023/04/18 09:35:04;;;;;;;17.15;12.75;;;12.20;91.30;;;;;;5013757;28;20026;-69
2023/04/18 09:37:29;;;;;;;14.52;13.07;;;12.20;91.50;;;;;;5014873;28;20096;-69
2023/04/18 09:39:55;;;;;;;14.98;13.30;;;12.10;91.80;;;;;;5014021;28;20034;-69
2023/04/18 09:42:21;;;;;;;20.02;12.82;;;12.20;91.80;;;;;;5014196;28;20029;-69
2023/04/18 09:45:06;;;;;;;14.88;12.75;;;12.20;91.60;;;;;;5014530;28;20113;-69
2023/04/18 09:47:34;;;;;;;14.85;13.10;;;12.20;91.90;;;;;;5014525;28;20064;-69
2023/04/18 09:50:07;;;;;;;23.02;11.95;;;12.30;91.80;;;;;;5014457;28;20032;-68
2023/04/18 09:52:35;;;;;;;16.52;12.15;;;12.50;92.10;;;;;;5013352;28;20030;-68
2023/04/18 09:55:04;;;;;;;15.63;13.30;;;13.00;91.60;;;;;;5012918;28;20033;-68
2023/04/18 09:57:31;;;;;;;14.38;12.68;;;13.30;90.90;;;;;;5011253;28;20431;-69
2023/04/18 10:00:16;;;;;;;18.20;13.32;;;13.60;90.40;;;;;;5007046;28;20026;-68
2023/04/18 10:03:08;;;;;;;21.58;13.95;;;13.70;90.30;;;;;;5012307;28;20021;-68
2023/04/18 10:05:36;;;;;;;15.30;12.20;;;13.80;90.10;;;;;;5012197;28;20545;-68
2023/04/18 10:08:02;;;;;;;14.07;12.68;;;13.90;90.30;;;;;;5008654;28;20356;-69
2023/04/18 10:10:28;;;;;;;14.15;12.70;;;14.00;89.80;;;;;;5011772;28;20036;-68
2023/04/18 10:12:58;;;;;;;15.13;12.88;;;14.00;89.60;;;;;;5017599;28;20030;-68
2023/04/18 10:15:27;;;;;;;16.55;14.80;;;14.00;89.70;;;;;;5015487;28;20108;-69
2023/04/18 10:17:56;;;;;;;18.88;13.70;;;14.00;89.40;;;;;;5013456;28;20116;-69
2023/04/18 10:20:33;;;;;;;14.93;13.32;;;14.10;89.70;;;;;;5012935;28;20040;-69
2023/04/18 10:22:59;;;;;;;14.80;13.10;;;14.20;89.60;;;;;;5014001;28;20018;-69
2023/04/18 10:25:34;;;;;;;16.55;14.27;;;14.10;89.20;;;;;;5013955;28;20034;-69
2023/04/18 10:28:04;;;;;;;17.27;15.48;;;14.30;89.10;;;;;;5013220;28;20125;-69
2023/04/18 10:30:49;;;;;;;16.23;14.55;;;14.20;88.80;;;;;;5013250;28;20029;-69
2023/04/18 10:33:24;;;;;;;16.58;14.98;;;14.30;88.70;;;;;;5012011;28;20056;-69
2023/04/18 10:36:08;;;;;;;16.55;14.85;;;14.30;88.30;;;;;;5013615;28;20041;-69
2023/04/18 10:38:44;;;;;;;17.00;14.52;;;14.40;88.50;;;;;;5013651;28;20093;-68
2023/04/18 10:41:25;;;;;;;16.15;14.55;;;14.40;88.30;;;;;;5006932;28;20113;-69
2023/04/18 10:44:13;;;;;;;15.95;14.25;;;14.40;88.00;;;;;;5012671;28;20028;-69
2023/04/18 10:47:00;;;;;;;15.45;13.95;;;14.50;88.20;;;;;;4997611;28;20384;-69
2023/04/18 10:49:27;;;;;;;15.65;13.82;;;14.50;87.90;;;;;;4993706;28;20053;-69
2023/04/18 10:51:58;;;;;;;15.43;13.93;;;14.60;87.20;;;;;;5001507;28;20333;-68
2023/04/18 10:54:57;;;;;;;15.38;13.88;;;14.60;87.20;;;;;;5012239;28;20034;-69
2023/04/18 10:57:22;;;;;;;13.95;12.65;;;14.60;86.00;;;;;;5005896;28;20029;-69
2023/04/18 10:59:50;;;;;;;16.83;12.95;;;14.60;86.60;;;;;;5013374;28;20049;-69
2023/04/18 11:02:28;;;;;;;14.02;12.25;;;14.70;86.30;;;;;;5011922;28;20026;-69
2023/04/18 11:04:57;;;;;;;13.52;12.13;;;14.70;85.50;;;;;;5009278;28;20034;-70
2023/04/18 11:07:34;;;;;;;12.02;10.70;;;14.80;85.30;;;;;;5009127;28;20029;-69
2023/04/18 11:10:00;;;;;;;14.18;9.93;;;14.90;85.10;;;;;;5010882;28;20520;-69
2023/04/18 11:12:37;;;;;;;13.95;9.82;;;14.90;84.90;;;;;;5012852;28;20026;-68
2023/04/18 11:15:13;;;;;;;11.75;10.00;;;14.80;83.50;;;;;;4996171;28;20391;-69
2023/04/18 11:17:39;;;;;;;12.23;9.73;;;14.70;83.50;;;;;;5009633;28;20033;-69
2023/04/18 11:20:13;;;;;;;12.93;9.85;;;14.70;84.00;;;;;;5011066;28;20026;-69
2023/04/18 11:22:49;;;;;;;13.10;9.02;;;14.70;84.30;;;;;;5011264;28;20220;-68
2023/04/18 11:25:15;;;;;;;9.40;8.45;;;14.80;85.00;;;;;;5012691;28;20022;-69
2023/04/18 11:27:46;;;;;;;10.90;9.77;;;14.90;84.90;;;;;;5012477;28;20029;-69
2023/04/18 11:30:13;;;;;;;10.70;9.57;;;14.90;84.20;;;;;;5011779;28;20498;-69
2023/04/18 11:32:39;;;;;;;12.80;10.00;;;14.90;85.20;;;;;;5011453;28;20022;-69
2023/04/18 11:35:08;;;;;;;11.15;9.77;;;15.00;85.70;;;;;;5012704;28;20511;-68
2023/04/18 11:37:36;;;;;;;11.77;10.40;;;15.00;85.70;;;;;;5011540;28;20100;-69
2023/04/18 11:40:02;;;;;;;12.15;10.85;;;15.00;85.70;;;;;;5011046;28;20037;-69
2023/04/18 11:42:32;;;;;;;13.07;11.77;;;15.10;85.20;;;;;;5012390;28;20041;-69
2023/04/18 11:44:57;;;;;;;13.32;12.05;;;15.00;84.90;;;;;;5012485;28;20033;-69
2023/04/18 11:47:28;;;;;;;12.48;11.30;;;14.90;85.80;;;;;;5012574;28;20022;-69
2023/04/18 11:49:59;;;;;;;13.00;11.73;;;14.90;84.70;;;;;;4995020;28;20106;-69
2023/04/18 11:52:29;;;;;;;13.77;12.38;;;14.90;85.20;;;;;;5012230;28;20026;-69
2023/04/18 11:54:55;;;;;;;13.32;11.23;;;14.90;84.60;;;;;;5011329;28;20035;-69
2023/04/18 11:57:28;;;;;;;12.88;11.52;;;15.00;85.50;;;;;;5008468;28;20057;-68
2023/04/18 11:59:55;;;;;;;15.13;12.27;;;15.10;85.70;;;;;;5011030;28;20045;-68
2023/04/18 12:02:23;;;;;;;14.63;13.18;;;15.20;85.20;;;;;;5011753;28;20033;-68
2023/04/18 12:04:58;;;;;;;14.38;12.98;;;15.20;85.10;;;;;;4992273;28;20545;-67
2023/04/18 12:07:35;;;;;;;13.98;12.50;;;15.30;84.70;;;;;;5011652;28;20026;-66
2023/04/18 12:10:01;;;;;;;13.85;12.55;;;15.20;84.10;;;;;;5010017;28;20515;-68
2023/04/18 12:12:26;;;;;;;16.00;11.85;;;15.20;84.00;;;;;;5010382;28;20101;-68
2023/04/18 12:15:06;;;;;;;12.88;10.45;;;15.20;84.30;;;;;;5013397;28;20164;-68
2023/04/18 12:17:31;;;;;;;11.10;10.00;;;15.20;83.40;;;;;;5020926;28;20557;-68
2023/04/18 12:20:05;;;;;;;10.93;9.82;;;15.20;82.80;;;;;;5020298;28;20034;-67
2023/04/18 12:22:49;;;;;;;12.05;9.90;;;15.20;82.90;;;;;;5007876;28;20037;-69
2023/04/18 12:25:18;;;;;;;11.23;10.13;;;15.20;82.10;;;;;;5010129;28;20034;-68
2023/04/18 12:27:56;;;;;;;10.82;9.75;;;15.20;82.70;;;;;;5011867;28;20030;-68
2023/04/18 12:30:27;;;;;;;13.18;9.73;;;15.30;82.90;;;;;;5011953;28;20111;-68
2023/04/18 12:32:58;;;;;;;11.23;9.85;;;15.20;83.30;;;;;;5012188;28;20018;-68